sensor_id;sensor_type;location;lat;lon;timestamp;temperature;humidity
6654;DHT22;3363;50.942;7.034;2023-11-19T00:00:27;8.80;99.90
6654;DHT22;3363;50.942;7.034;2023-11-19T00:02:54;8.90;99.90
6654;DHT22;3363;50.942;7.034;2023-11-19T00:05:22;9.00;99.90
6654;DHT22;3363;50.942;7.034;2023-11-19T00:07:49;8.90;99.90
6654;DHT22;3363;50.942;7.034;2023-11-19T00:10:16;9.00;99.90
6654;DHT22;3363;50.942;7.034;2023-11-19T00:12:44;9.00;99.90
6654;DHT22;3363;50.942;7.034;2023-11-19T00:15:11;9.00;99.90
6654;DHT22;3363;50.942;7.034;2023-11-19T00:17:38;9.00;99.90
6654;DHT22;3363;50.942;7.034;2023-11-19T00:20:10;9.10;99.90
6654;DHT22;3363;50.942;7.034;2023-11-19T00:22:38;9.00;99.90
6654;DHT22;3363;50.942;7.034;2023-11-19T00:25:07;8.90;99.90
6654;DHT22;3363;50.942;7.034;2023-11-19T00:27:34;8.80;99.90
6654;DHT22;3363;50.942;7.034;2023-11-19T00:30:01;9.00;99.90
6654;DHT22;3363;50.942;7.034;2023-11-19T00:32:30;9.00;99.90
6654;DHT22;3363;50.942;7.034;2023-11-19T00:34:57;9.00;99.90
6654;DHT22;3363;50.942;7.034;2023-11-19T00:37:24;8.90;99.90
6654;DHT22;3363;50.942;7.034;2023-11-19T00:39:53;9.00;99.90
6654;DHT22;3363;50.942;7.034;2023-11-19T00:42:21;9.00;99.90
6654;DHT22;3363;50.942;7.034;2023-11-19T00:44:49;9.00;99.90
6654;DHT22;3363;50.942;7.034;2023-11-19T00:47:16;8.90;99.90
6654;DHT22;3363;50.942;7.034;2023-11-19T00:49:45;9.10;99.90
6654;DHT22;3363;50.942;7.034;2023-11-19T00:52:13;9.10;99.90
6654;DHT22;3363;50.942;7.034;2023-11-19T00:54:40;9.40;99.90
6654;DHT22;3363;50.942;7.034;2023-11-19T00:57:08;9.30;99.90
6654;DHT22;3363;50.942;7.034;2023-11-19T00:59:35;9.40;99.90
6654;DHT22;3363;50.942;7.034;2023-11-19T01:02:02;9.40;99.90
6654;DHT22;3363;50.942;7.034;2023-11-19T01:04:33;9.40;99.90
6654;DHT22;3363;50.942;7.034;2023-11-19T01:07:01;9.50;99.90
6654;DHT22;3363;50.942;7.034;2023-11-19T01:09:29;9.60;99.90
6654;DHT22;3363;50.942;7.034;2023-11-19T01:11:57;9.40;99.90
6654;DHT22;3363;50.942;7.034;2023-11-19T01:14:27;9.40;99.90
6654;DHT22;3363;50.942;7.034;2023-11-19T01:16:53;9.50;99.90
6654;DHT22;3363;50.942;7.034;2023-11-19T01:19:21;9.50;99.90
6654;DHT22;3363;50.942;7.034;2023-11-19T01:21:48;9.50;99.90
6654;DHT22;3363;50.942;7.034;2023-11-19T01:24:15;9.50;99.90
6654;DHT22;3363;50.942;7.034;2023-11-19T01:26:43;9.50;99.90
6654;DHT22;3363;50.942;7.034;2023-11-19T01:29:10;9.60;99.90
6654;DHT22;3363;50.942;7.034;2023-11-19T01:31:40;9.60;99.90
6654;DHT22;3363;50.942;7.034;2023-11-19T01:34:07;9.60;99.90
6654;DHT22;3363;50.942;7.034;2023-11-19T01:36:34;9.40;99.90
6654;DHT22;3363;50.942;7.034;2023-11-19T01:39:01;9.60;99.90
6654;DHT22;3363;50.942;7.034;2023-11-19T01:41:29;9.50;99.90
6654;DHT22;3363;50.942;7.034;2023-11-19T01:43:56;9.50;99.90
6654;DHT22;3363;50.942;7.034;2023-11-19T01:46:24;9.50;99.90
6654;DHT22;3363;50.942;7.034;2023-11-19T01:48:52;9.60;99.90
6654;DHT22;3363;50.942;7.034;2023-11-19T01:51:19;9.60;99.90
6654;DHT22;3363;50.942;7.034;2023-11-19T01:53:48;9.90;99.90
6654;DHT22;3363;50.942;7.034;2023-11-19T01:56:15;9.90;99.90
6654;DHT22;3363;50.942;7.034;2023-11-19T01:58:42;9.90;99.90
6654;DHT22;3363;50.942;7.034;2023-11-19T02:01:10;10.00;99.90
6654;DHT22;3363;50.942;7.034;2023-11-19T02:03:38;10.00;99.90
6654;DHT22;3363;50.942;7.034;2023-11-19T02:06:06;10.00;99.90
6654;DHT22;3363;50.942;7.034;2023-11-19T02:08:35;10.00;99.90
6654;DHT22;3363;50.942;7.034;2023-11-19T02:11:02;9.80;99.90
6654;DHT22;3363;50.942;7.034;2023-11-19T02:13:30;10.10;99.90
6654;DHT22;3363;50.942;7.034;2023-11-19T02:15:56;10.00;99.90
6654;DHT22;3363;50.942;7.034;2023-11-19T02:18:25;10.10;99.90
6654;DHT22;3363;50.942;7.034;2023-11-19T02:20:53;9.90;99.90
6654;DHT22;3363;50.942;7.034;2023-11-19T02:23:21;9.90;99.90
6654;DHT22;3363;50.942;7.034;2023-11-19T02:25:53;9.80;99.90
6654;DHT22;3363;50.942;7.034;2023-11-19T02:28:27;10.00;99.90
6654;DHT22;3363;50.942;7.034;2023-11-19T02:30:54;10.10;99.90
6654;DHT22;3363;50.942;7.034;2023-11-19T02:33:21;9.80;99.90
6654;DHT22;3363;50.942;7.034;2023-11-19T02:35:48;9.70;99.90
6654;DHT22;3363;50.942;7.034;2023-11-19T02:38:15;9.80;99.90
6654;DHT22;3363;50.942;7.034;2023-11-19T02:40:42;10.00;99.90
6654;DHT22;3363;50.942;7.034;2023-11-19T02:43:08;9.80;99.90
6654;DHT22;3363;50.942;7.034;2023-11-19T02:45:37;9.70;99.90
6654;DHT22;3363;50.942;7.034;2023-11-19T02:48:04;9.80;99.90
6654;DHT22;3363;50.942;7.034;2023-11-19T02:50:31;9.70;99.90
6654;DHT22;3363;50.942;7.034;2023-11-19T02:52:58;9.80;99.90
6654;DHT22;3363;50.942;7.034;2023-11-19T02:55:26;9.80;99.90
6654;DHT22;3363;50.942;7.034;2023-11-19T02:57:55;10.00;99.90
6654;DHT22;3363;50.942;7.034;2023-11-19T03:00:24;10.10;99.90
6654;DHT22;3363;50.942;7.034;2023-11-19T03:02:59;9.80;99.90
6654;DHT22;3363;50.942;7.034;2023-11-19T03:05:35;9.70;99.90
6654;DHT22;3363;50.942;7.034;2023-11-19T03:08:02;9.80;99.90
6654;DHT22;3363;50.942;7.034;2023-11-19T03:10:29;9.70;99.90
6654;DHT22;3363;50.942;7.034;2023-11-19T03:12:55;9.80;99.90
6654;DHT22;3363;50.942;7.034;2023-11-19T03:15:22;9.90;99.90
6654;DHT22;3363;50.942;7.034;2023-11-19T03:17:48;9.80;99.90
6654;DHT22;3363;50.942;7.034;2023-11-19T03:20:16;9.70;99.90
6654;DHT22;3363;50.942;7.034;2023-11-19T03:22:43;9.60;99.90
6654;DHT22;3363;50.942;7.034;2023-11-19T03:25:09;9.70;99.90
6654;DHT22;3363;50.942;7.034;2023-11-19T03:27:37;9.70;99.90
6654;DHT22;3363;50.942;7.034;2023-11-19T03:30:04;9.70;99.90
6654;DHT22;3363;50.942;7.034;2023-11-19T03:32:32;9.60;99.90
6654;DHT22;3363;50.942;7.034;2023-11-19T03:35:00;9.80;99.90
6654;DHT22;3363;50.942;7.034;2023-11-19T03:37:28;9.80;99.90
6654;DHT22;3363;50.942;7.034;2023-11-19T03:39:55;9.60;99.90
6654;DHT22;3363;50.942;7.034;2023-11-19T03:42:25;9.60;99.90
6654;DHT22;3363;50.942;7.034;2023-11-19T03:44:51;9.80;99.90
6654;DHT22;3363;50.942;7.034;2023-11-19T03:47:18;9.80;99.90
6654;DHT22;3363;50.942;7.034;2023-11-19T03:49:47;9.90;99.90
6654;DHT22;3363;50.942;7.034;2023-11-19T03:52:14;9.90;99.90
6654;DHT22;3363;50.942;7.034;2023-11-19T03:54:42;10.10;99.90
6654;DHT22;3363;50.942;7.034;2023-11-19T03:57:09;9.70;99.90
6654;DHT22;3363;50.942;7.034;2023-11-19T03:59:37;9.70;99.90
6654;DHT22;3363;50.942;7.034;2023-11-19T04:02:04;9.70;99.90
6654;DHT22;3363;50.942;7.034;2023-11-19T04:04:31;9.80;99.90
6654;DHT22;3363;50.942;7.034;2023-11-19T04:06:59;9.80;99.90
6654;DHT22;3363;50.942;7.034;2023-11-19T04:09:28;9.80;99.90
6654;DHT22;3363;50.942;7.034;2023-11-19T04:11:56;9.70;99.90
6654;DHT22;3363;50.942;7.034;2023-11-19T04:14:23;9.60;99.90
6654;DHT22;3363;50.942;7.034;2023-11-19T04:16:50;9.90;99.90
6654;DHT22;3363;50.942;7.034;2023-11-19T04:19:17;9.90;99.90
6654;DHT22;3363;50.942;7.034;2023-11-19T04:21:44;9.80;99.90
6654;DHT22;3363;50.942;7.034;2023-11-19T04:24:11;9.90;99.90
6654;DHT22;3363;50.942;7.034;2023-11-19T04:26:40;9.70;99.90
6654;DHT22;3363;50.942;7.034;2023-11-19T04:29:10;10.00;99.90
6654;DHT22;3363;50.942;7.034;2023-11-19T04:31:37;10.00;99.90
6654;DHT22;3363;50.942;7.034;2023-11-19T04:34:04;10.00;99.90
6654;DHT22;3363;50.942;7.034;2023-11-19T04:36:31;9.90;99.90
6654;DHT22;3363;50.942;7.034;2023-11-19T04:38:58;9.80;99.90
6654;DHT22;3363;50.942;7.034;2023-11-19T04:41:26;9.90;99.90
6654;DHT22;3363;50.942;7.034;2023-11-19T04:43:53;10.10;99.90
6654;DHT22;3363;50.942;7.034;2023-11-19T04:46:21;10.30;99.90
6654;DHT22;3363;50.942;7.034;2023-11-19T04:48:49;10.30;99.90
6654;DHT22;3363;50.942;7.034;2023-11-19T04:51:16;10.30;99.90
6654;DHT22;3363;50.942;7.034;2023-11-19T04:53:43;10.40;99.90
6654;DHT22;3363;50.942;7.034;2023-11-19T04:56:10;10.50;99.90
6654;DHT22;3363;50.942;7.034;2023-11-19T04:58:38;10.30;99.90
6654;DHT22;3363;50.942;7.034;2023-11-19T05:01:05;10.40;99.90
6654;DHT22;3363;50.942;7.034;2023-11-19T05:03:34;10.50;99.90
6654;DHT22;3363;50.942;7.034;2023-11-19T05:06:01;10.50;99.90
6654;DHT22;3363;50.942;7.034;2023-11-19T05:08:28;10.30;99.90
6654;DHT22;3363;50.942;7.034;2023-11-19T05:10:55;10.60;99.90
6654;DHT22;3363;50.942;7.034;2023-11-19T05:13:23;10.40;99.90
6654;DHT22;3363;50.942;7.034;2023-11-19T05:15:49;10.40;99.90
6654;DHT22;3363;50.942;7.034;2023-11-19T05:18:16;10.20;99.90
6654;DHT22;3363;50.942;7.034;2023-11-19T05:20:45;10.10;99.90
6654;DHT22;3363;50.942;7.034;2023-11-19T05:23:12;10.10;99.90
6654;DHT22;3363;50.942;7.034;2023-11-19T05:25:39;10.00;99.90
6654;DHT22;3363;50.942;7.034;2023-11-19T05:28:06;10.20;99.90
6654;DHT22;3363;50.942;7.034;2023-11-19T05:30:33;10.10;99.90
6654;DHT22;3363;50.942;7.034;2023-11-19T05:33:00;10.00;99.90
6654;DHT22;3363;50.942;7.034;2023-11-19T05:35:27;10.10;99.90
6654;DHT22;3363;50.942;7.034;2023-11-19T05:37:55;10.10;99.90
6654;DHT22;3363;50.942;7.034;2023-11-19T05:40:22;10.20;99.90
6654;DHT22;3363;50.942;7.034;2023-11-19T05:42:49;10.30;99.90
6654;DHT22;3363;50.942;7.034;2023-11-19T05:45:16;10.20;99.90
6654;DHT22;3363;50.942;7.034;2023-11-19T05:47:43;10.20;99.90
6654;DHT22;3363;50.942;7.034;2023-11-19T05:50:10;10.20;99.90
6654;DHT22;3363;50.942;7.034;2023-11-19T05:52:37;10.20;99.90
6654;DHT22;3363;50.942;7.034;2023-11-19T05:55:05;10.10;99.90
6654;DHT22;3363;50.942;7.034;2023-11-19T05:57:35;10.20;99.90
6654;DHT22;3363;50.942;7.034;2023-11-19T06:00:02;10.20;99.90
6654;DHT22;3363;50.942;7.034;2023-11-19T06:02:32;10.10;99.90
6654;DHT22;3363;50.942;7.034;2023-11-19T06:04:59;10.00;99.90
6654;DHT22;3363;50.942;7.034;2023-11-19T06:07:26;10.00;99.90
6654;DHT22;3363;50.942;7.034;2023-11-19T06:09:53;10.00;99.90
6654;DHT22;3363;50.942;7.034;2023-11-19T06:12:21;9.90;99.90
6654;DHT22;3363;50.942;7.034;2023-11-19T06:14:48;10.10;99.90
6654;DHT22;3363;50.942;7.034;2023-11-19T06:17:15;10.20;99.90
6654;DHT22;3363;50.942;7.034;2023-11-19T06:19:42;10.20;99.90
6654;DHT22;3363;50.942;7.034;2023-11-19T06:22:10;10.10;99.90
6654;DHT22;3363;50.942;7.034;2023-11-19T06:24:37;9.90;99.90
6654;DHT22;3363;50.942;7.034;2023-11-19T06:27:04;10.10;99.90
6654;DHT22;3363;50.942;7.034;2023-11-19T06:29:32;10.10;99.90
6654;DHT22;3363;50.942;7.034;2023-11-19T06:31:59;10.20;99.90
6654;DHT22;3363;50.942;7.034;2023-11-19T06:34:26;10.10;99.90
6654;DHT22;3363;50.942;7.034;2023-11-19T06:36:53;10.20;99.90
6654;DHT22;3363;50.942;7.034;2023-11-19T06:39:20;10.30;99.90
6654;DHT22;3363;50.942;7.034;2023-11-19T06:41:46;10.30;99.90
6654;DHT22;3363;50.942;7.034;2023-11-19T06:44:14;10.20;99.90
6654;DHT22;3363;50.942;7.034;2023-11-19T06:46:42;10.20;99.90
6654;DHT22;3363;50.942;7.034;2023-11-19T06:49:09;10.20;99.90
6654;DHT22;3363;50.942;7.034;2023-11-19T06:51:41;10.20;99.90
6654;DHT22;3363;50.942;7.034;2023-11-19T06:54:08;10.10;99.90
6654;DHT22;3363;50.942;7.034;2023-11-19T06:56:35;10.10;99.90
6654;DHT22;3363;50.942;7.034;2023-11-19T06:59:02;10.00;99.90
6654;DHT22;3363;50.942;7.034;2023-11-19T07:01:33;10.00;99.90
6654;DHT22;3363;50.942;7.034;2023-11-19T07:04:02;10.00;99.90
6654;DHT22;3363;50.942;7.034;2023-11-19T07:06:34;10.10;99.90
6654;DHT22;3363;50.942;7.034;2023-11-19T07:09:02;10.10;99.90
6654;DHT22;3363;50.942;7.034;2023-11-19T07:11:35;10.10;99.90
6654;DHT22;3363;50.942;7.034;2023-11-19T07:14:02;10.10;99.90
6654;DHT22;3363;50.942;7.034;2023-11-19T07:16:29;10.00;99.90
6654;DHT22;3363;50.942;7.034;2023-11-19T07:18:56;9.90;99.90
6654;DHT22;3363;50.942;7.034;2023-11-19T07:21:25;10.00;99.90
6654;DHT22;3363;50.942;7.034;2023-11-19T07:23:53;9.90;99.90
6654;DHT22;3363;50.942;7.034;2023-11-19T07:26:20;9.90;99.90
6654;DHT22;3363;50.942;7.034;2023-11-19T07:28:47;9.90;99.90
6654;DHT22;3363;50.942;7.034;2023-11-19T07:31:14;10.00;99.90
6654;DHT22;3363;50.942;7.034;2023-11-19T07:33:41;10.00;99.90
6654;DHT22;3363;50.942;7.034;2023-11-19T07:36:08;10.20;99.90
6654;DHT22;3363;50.942;7.034;2023-11-19T07:38:37;10.40;99.90
6654;DHT22;3363;50.942;7.034;2023-11-19T07:41:04;10.70;99.90
6654;DHT22;3363;50.942;7.034;2023-11-19T07:43:32;10.60;99.90
6654;DHT22;3363;50.942;7.034;2023-11-19T07:45:59;10.70;99.90
6654;DHT22;3363;50.942;7.034;2023-11-19T07:48:26;10.80;99.90
6654;DHT22;3363;50.942;7.034;2023-11-19T07:50:53;10.90;99.90
6654;DHT22;3363;50.942;7.034;2023-11-19T07:53:19;10.90;99.90
6654;DHT22;3363;50.942;7.034;2023-11-19T07:55:48;11.10;99.90
6654;DHT22;3363;50.942;7.034;2023-11-19T07:58:14;11.00;99.90
6654;DHT22;3363;50.942;7.034;2023-11-19T08:00:42;10.90;99.90
6654;DHT22;3363;50.942;7.034;2023-11-19T08:03:08;11.00;99.90
6654;DHT22;3363;50.942;7.034;2023-11-19T08:05:35;10.90;99.90
6654;DHT22;3363;50.942;7.034;2023-11-19T08:08:02;10.90;99.90
6654;DHT22;3363;50.942;7.034;2023-11-19T08:10:29;10.90;99.90
6654;DHT22;3363;50.942;7.034;2023-11-19T08:12:59;10.90;99.90
6654;DHT22;3363;50.942;7.034;2023-11-19T08:15:26;10.90;99.90
6654;DHT22;3363;50.942;7.034;2023-11-19T08:17:53;10.90;99.90
6654;DHT22;3363;50.942;7.034;2023-11-19T08:20:20;10.90;99.90
6654;DHT22;3363;50.942;7.034;2023-11-19T08:22:47;11.00;99.90
6654;DHT22;3363;50.942;7.034;2023-11-19T08:25:14;11.10;99.90
6654;DHT22;3363;50.942;7.034;2023-11-19T08:27:40;11.10;99.90
6654;DHT22;3363;50.942;7.034;2023-11-19T08:30:10;11.10;99.90
6654;DHT22;3363;50.942;7.034;2023-11-19T08:32:37;11.10;99.90
6654;DHT22;3363;50.942;7.034;2023-11-19T08:35:04;11.10;99.90
6654;DHT22;3363;50.942;7.034;2023-11-19T08:37:31;11.10;99.90
6654;DHT22;3363;50.942;7.034;2023-11-19T08:39:58;11.30;99.90
6654;DHT22;3363;50.942;7.034;2023-11-19T08:42:26;11.30;99.90
6654;DHT22;3363;50.942;7.034;2023-11-19T08:44:53;11.50;99.90
6654;DHT22;3363;50.942;7.034;2023-11-19T08:47:21;11.40;99.90
6654;DHT22;3363;50.942;7.034;2023-11-19T08:49:50;11.50;99.90
6654;DHT22;3363;50.942;7.034;2023-11-19T08:52:17;11.60;99.90
6654;DHT22;3363;50.942;7.034;2023-11-19T08:54:44;11.40;99.90
6654;DHT22;3363;50.942;7.034;2023-11-19T08:57:11;11.60;99.90
6654;DHT22;3363;50.942;7.034;2023-11-19T08:59:38;11.60;99.90
6654;DHT22;3363;50.942;7.034;2023-11-19T09:02:05;11.60;99.90
6654;DHT22;3363;50.942;7.034;2023-11-19T09:04:33;11.60;99.90
6654;DHT22;3363;50.942;7.034;2023-11-19T09:07:01;11.80;99.90
6654;DHT22;3363;50.942;7.034;2023-11-19T09:09:28;11.80;99.90
6654;DHT22;3363;50.942;7.034;2023-11-19T09:11:55;11.80;99.90
6654;DHT22;3363;50.942;7.034;2023-11-19T09:14:22;11.80;99.90
6654;DHT22;3363;50.942;7.034;2023-11-19T09:16:51;11.90;99.90
6654;DHT22;3363;50.942;7.034;2023-11-19T09:19:18;11.90;99.90
6654;DHT22;3363;50.942;7.034;2023-11-19T09:21:46;12.20;99.90
6654;DHT22;3363;50.942;7.034;2023-11-19T09:24:14;12.10;99.90
6654;DHT22;3363;50.942;7.034;2023-11-19T09:26:41;12.20;97.10
6654;DHT22;3363;50.942;7.034;2023-11-19T09:29:08;12.30;97.70
6654;DHT22;3363;50.942;7.034;2023-11-19T09:31:37;12.30;96.10
6654;DHT22;3363;50.942;7.034;2023-11-19T09:34:04;12.40;95.70
6654;DHT22;3363;50.942;7.034;2023-11-19T09:36:31;12.50;96.00
6654;DHT22;3363;50.942;7.034;2023-11-19T09:38:59;12.30;97.60
6654;DHT22;3363;50.942;7.034;2023-11-19T09:41:27;12.10;99.90
6654;DHT22;3363;50.942;7.034;2023-11-19T09:43:54;12.00;99.90
6654;DHT22;3363;50.942;7.034;2023-11-19T09:46:21;12.00;99.90
6654;DHT22;3363;50.942;7.034;2023-11-19T09:48:49;11.90;99.90
6654;DHT22;3363;50.942;7.034;2023-11-19T09:51:20;11.90;99.90
6654;DHT22;3363;50.942;7.034;2023-11-19T09:53:46;12.10;99.90
6654;DHT22;3363;50.942;7.034;2023-11-19T09:56:16;12.10;99.90
6654;DHT22;3363;50.942;7.034;2023-11-19T09:58:43;12.10;99.90
6654;DHT22;3363;50.942;7.034;2023-11-19T10:01:10;12.10;99.90
6654;DHT22;3363;50.942;7.034;2023-11-19T10:03:38;12.00;99.90
6654;DHT22;3363;50.942;7.034;2023-11-19T10:06:06;11.90;99.90
6654;DHT22;3363;50.942;7.034;2023-11-19T10:08:33;11.90;99.90
6654;DHT22;3363;50.942;7.034;2023-11-19T10:11:00;11.80;99.90
6654;DHT22;3363;50.942;7.034;2023-11-19T10:13:29;11.80;99.90
6654;DHT22;3363;50.942;7.034;2023-11-19T10:15:56;12.00;99.90
6654;DHT22;3363;50.942;7.034;2023-11-19T10:18:24;12.00;99.90
6654;DHT22;3363;50.942;7.034;2023-11-19T10:20:52;12.20;99.90
6654;DHT22;3363;50.942;7.034;2023-11-19T10:23:20;12.20;99.90
6654;DHT22;3363;50.942;7.034;2023-11-19T10:25:47;12.20;99.90
6654;DHT22;3363;50.942;7.034;2023-11-19T10:28:14;12.20;99.50
6654;DHT22;3363;50.942;7.034;2023-11-19T10:30:43;12.20;99.00
6654;DHT22;3363;50.942;7.034;2023-11-19T10:33:11;12.20;99.10
6654;DHT22;3363;50.942;7.034;2023-11-19T10:35:52;12.20;99.40
6654;DHT22;3363;50.942;7.034;2023-11-19T10:38:22;12.20;99.30
6654;DHT22;3363;50.942;7.034;2023-11-19T10:40:49;12.10;97.90
6654;DHT22;3363;50.942;7.034;2023-11-19T10:43:16;12.10;99.40
6654;DHT22;3363;50.942;7.034;2023-11-19T10:45:45;12.10;99.60
6654;DHT22;3363;50.942;7.034;2023-11-19T10:48:12;12.10;99.50
6654;DHT22;3363;50.942;7.034;2023-11-19T10:50:39;12.10;99.30
6654;DHT22;3363;50.942;7.034;2023-11-19T10:53:07;12.10;99.50
6654;DHT22;3363;50.942;7.034;2023-11-19T10:55:38;12.30;96.20
6654;DHT22;3363;50.942;7.034;2023-11-19T10:58:05;12.40;92.70
6654;DHT22;3363;50.942;7.034;2023-11-19T11:00:34;12.40;92.70
6654;DHT22;3363;50.942;7.034;2023-11-19T11:03:08;12.30;94.20
6654;DHT22;3363;50.942;7.034;2023-11-19T11:05:36;12.10;95.10
6654;DHT22;3363;50.942;7.034;2023-11-19T11:08:04;12.10;96.10
6654;DHT22;3363;50.942;7.034;2023-11-19T11:10:35;12.10;95.50
6654;DHT22;3363;50.942;7.034;2023-11-19T11:13:06;12.10;94.70
6654;DHT22;3363;50.942;7.034;2023-11-19T11:15:33;12.00;96.10
6654;DHT22;3363;50.942;7.034;2023-11-19T11:18:00;12.00;96.30
6654;DHT22;3363;50.942;7.034;2023-11-19T11:25:35;11.90;99.90
6654;DHT22;3363;50.942;7.034;2023-11-19T11:28:13;12.00;99.90
6654;DHT22;3363;50.942;7.034;2023-11-19T11:30:51;12.00;99.90
6654;DHT22;3363;50.942;7.034;2023-11-19T11:33:32;11.90;99.90
6654;DHT22;3363;50.942;7.034;2023-11-19T11:36:11;11.80;99.90
6654;DHT22;3363;50.942;7.034;2023-11-19T11:38:40;11.80;99.90
6654;DHT22;3363;50.942;7.034;2023-11-19T11:41:19;11.70;99.90
6654;DHT22;3363;50.942;7.034;2023-11-19T11:43:48;11.80;99.90
6654;DHT22;3363;50.942;7.034;2023-11-19T11:49:26;11.80;99.90
6654;DHT22;3363;50.942;7.034;2023-11-19T11:52:03;11.70;99.90
6654;DHT22;3363;50.942;7.034;2023-11-19T11:54:39;11.80;99.90
6654;DHT22;3363;50.942;7.034;2023-11-19T11:57:09;11.80;99.90
6654;DHT22;3363;50.942;7.034;2023-11-19T11:59:37;11.80;98.90
6654;DHT22;3363;50.942;7.034;2023-11-19T12:02:14;11.80;97.50
6654;DHT22;3363;50.942;7.034;2023-11-19T12:04:41;11.80;97.20
6654;DHT22;3363;50.942;7.034;2023-11-19T12:07:11;11.90;95.80
6654;DHT22;3363;50.942;7.034;2023-11-19T12:09:40;12.00;94.40
6654;DHT22;3363;50.942;7.034;2023-11-19T12:12:08;12.40;91.50
6654;DHT22;3363;50.942;7.034;2023-11-19T12:17:46;12.50;91.10
6654;DHT22;3363;50.942;7.034;2023-11-19T12:20:15;12.50;89.80
6654;DHT22;3363;50.942;7.034;2023-11-19T12:22:43;12.50;90.10
6654;DHT22;3363;50.942;7.034;2023-11-19T12:25:13;12.40;90.60
6654;DHT22;3363;50.942;7.034;2023-11-19T12:27:43;12.40;90.90
6654;DHT22;3363;50.942;7.034;2023-11-19T12:30:10;12.40;90.80
6654;DHT22;3363;50.942;7.034;2023-11-19T12:32:38;12.40;91.10
6654;DHT22;3363;50.942;7.034;2023-11-19T12:35:06;12.40;91.10
6654;DHT22;3363;50.942;7.034;2023-11-19T12:37:42;12.30;91.00
6654;DHT22;3363;50.942;7.034;2023-11-19T12:40:11;12.40;91.00
6654;DHT22;3363;50.942;7.034;2023-11-19T12:42:42;12.50;90.50
6654;DHT22;3363;50.942;7.034;2023-11-19T12:45:09;12.70;88.60
6654;DHT22;3363;50.942;7.034;2023-11-19T12:47:37;12.50;88.90
6654;DHT22;3363;50.942;7.034;2023-11-19T12:50:06;12.50;88.70
6654;DHT22;3363;50.942;7.034;2023-11-19T12:52:34;12.50;89.30
6654;DHT22;3363;50.942;7.034;2023-11-19T12:55:01;12.40;90.10
6654;DHT22;3363;50.942;7.034;2023-11-19T12:57:37;12.50;88.50
6654;DHT22;3363;50.942;7.034;2023-11-19T13:00:07;12.60;87.40
6654;DHT22;3363;50.942;7.034;2023-11-19T13:02:45;12.60;85.00
6654;DHT22;3363;50.942;7.034;2023-11-19T13:05:23;12.60;86.50
6654;DHT22;3363;50.942;7.034;2023-11-19T13:07:51;12.70;85.10
6654;DHT22;3363;50.942;7.034;2023-11-19T13:10:24;12.70;84.30
6654;DHT22;3363;50.942;7.034;2023-11-19T13:12:59;12.80;85.10
6654;DHT22;3363;50.942;7.034;2023-11-19T13:15:30;12.80;84.60
6654;DHT22;3363;50.942;7.034;2023-11-19T13:17:57;12.80;84.50
6654;DHT22;3363;50.942;7.034;2023-11-19T13:20:24;12.80;84.80
6654;DHT22;3363;50.942;7.034;2023-11-19T13:22:55;12.70;85.60
6654;DHT22;3363;50.942;7.034;2023-11-19T13:25:25;12.90;86.70
6654;DHT22;3363;50.942;7.034;2023-11-19T13:27:52;12.80;86.70
6654;DHT22;3363;50.942;7.034;2023-11-19T13:30:19;12.90;87.50
6654;DHT22;3363;50.942;7.034;2023-11-19T13:32:49;12.90;86.00
6654;DHT22;3363;50.942;7.034;2023-11-19T13:35:16;12.90;86.80
6654;DHT22;3363;50.942;7.034;2023-11-19T13:37:43;12.90;85.50
6654;DHT22;3363;50.942;7.034;2023-11-19T13:40:10;12.90;84.60
6654;DHT22;3363;50.942;7.034;2023-11-19T13:42:39;12.90;85.40
6654;DHT22;3363;50.942;7.034;2023-11-19T13:45:07;12.90;83.20
6654;DHT22;3363;50.942;7.034;2023-11-19T13:47:37;13.00;84.70
6654;DHT22;3363;50.942;7.034;2023-11-19T13:50:08;13.10;80.30
6654;DHT22;3363;50.942;7.034;2023-11-19T13:52:36;13.10;79.60
6654;DHT22;3363;50.942;7.034;2023-11-19T13:55:05;13.20;78.80
6654;DHT22;3363;50.942;7.034;2023-11-19T13:57:33;13.10;80.10
6654;DHT22;3363;50.942;7.034;2023-11-19T14:00:00;13.00;79.70
6654;DHT22;3363;50.942;7.034;2023-11-19T14:02:30;13.10;79.20
6654;DHT22;3363;50.942;7.034;2023-11-19T14:04:57;13.10;78.50
6654;DHT22;3363;50.942;7.034;2023-11-19T14:07:26;13.10;77.80
6654;DHT22;3363;50.942;7.034;2023-11-19T14:09:54;13.10;77.90
6654;DHT22;3363;50.942;7.034;2023-11-19T14:12:21;13.00;78.90
6654;DHT22;3363;50.942;7.034;2023-11-19T14:14:48;12.80;77.80
6654;DHT22;3363;50.942;7.034;2023-11-19T14:17:14;12.80;80.10
6654;DHT22;3363;50.942;7.034;2023-11-19T14:19:41;12.60;81.90
6654;DHT22;3363;50.942;7.034;2023-11-19T14:22:09;12.60;81.20
6654;DHT22;3363;50.942;7.034;2023-11-19T14:24:38;12.60;82.10
6654;DHT22;3363;50.942;7.034;2023-11-19T14:27:06;12.50;83.10
6654;DHT22;3363;50.942;7.034;2023-11-19T14:29:33;12.50;82.10
6654;DHT22;3363;50.942;7.034;2023-11-19T14:32:00;12.60;82.50
6654;DHT22;3363;50.942;7.034;2023-11-19T14:34:28;12.60;82.90
6654;DHT22;3363;50.942;7.034;2023-11-19T14:36:55;12.50;83.60
6654;DHT22;3363;50.942;7.034;2023-11-19T14:39:22;12.40;85.30
6654;DHT22;3363;50.942;7.034;2023-11-19T14:41:50;12.40;84.80
6654;DHT22;3363;50.942;7.034;2023-11-19T14:44:18;12.50;84.30
6654;DHT22;3363;50.942;7.034;2023-11-19T14:46:46;12.60;81.10
6654;DHT22;3363;50.942;7.034;2023-11-19T14:49:13;12.80;80.70
6654;DHT22;3363;50.942;7.034;2023-11-19T14:51:40;12.70;79.40
6654;DHT22;3363;50.942;7.034;2023-11-19T14:54:07;12.80;78.20
6654;DHT22;3363;50.942;7.034;2023-11-19T14:56:34;12.80;77.90
6654;DHT22;3363;50.942;7.034;2023-11-19T14:59:03;12.90;77.70
6654;DHT22;3363;50.942;7.034;2023-11-19T15:01:29;12.90;78.70
6654;DHT22;3363;50.942;7.034;2023-11-19T15:03:56;12.90;80.00
6654;DHT22;3363;50.942;7.034;2023-11-19T15:06:23;12.80;79.10
6654;DHT22;3363;50.942;7.034;2023-11-19T15:08:51;12.70;79.00
6654;DHT22;3363;50.942;7.034;2023-11-19T15:11:18;12.50;81.70
6654;DHT22;3363;50.942;7.034;2023-11-19T15:13:44;12.50;81.30
6654;DHT22;3363;50.942;7.034;2023-11-19T15:16:13;12.50;80.50
6654;DHT22;3363;50.942;7.034;2023-11-19T15:18:39;12.50;81.50
6654;DHT22;3363;50.942;7.034;2023-11-19T15:21:06;12.40;82.60
6654;DHT22;3363;50.942;7.034;2023-11-19T15:23:34;12.40;81.40
6654;DHT22;3363;50.942;7.034;2023-11-19T15:26:02;12.40;81.00
6654;DHT22;3363;50.942;7.034;2023-11-19T15:28:29;12.30;83.00
6654;DHT22;3363;50.942;7.034;2023-11-19T15:30:56;12.30;82.90
6654;DHT22;3363;50.942;7.034;2023-11-19T15:33:25;12.30;83.90
6654;DHT22;3363;50.942;7.034;2023-11-19T15:35:51;12.20;85.00
6654;DHT22;3363;50.942;7.034;2023-11-19T15:38:18;12.20;84.90
6654;DHT22;3363;50.942;7.034;2023-11-19T15:40:45;12.30;84.40
6654;DHT22;3363;50.942;7.034;2023-11-19T15:43:13;12.30;87.80
6654;DHT22;3363;50.942;7.034;2023-11-19T15:45:41;12.20;90.40
6654;DHT22;3363;50.942;7.034;2023-11-19T15:48:08;12.10;92.90
6654;DHT22;3363;50.942;7.034;2023-11-19T15:50:40;12.00;94.20
6654;DHT22;3363;50.942;7.034;2023-11-19T15:53:09;12.00;94.90
6654;DHT22;3363;50.942;7.034;2023-11-19T15:55:36;12.00;94.90
6654;DHT22;3363;50.942;7.034;2023-11-19T15:58:03;11.90;95.50
6654;DHT22;3363;50.942;7.034;2023-11-19T16:00:31;11.90;95.30
6654;DHT22;3363;50.942;7.034;2023-11-19T16:02:58;11.90;94.90
6654;DHT22;3363;50.942;7.034;2023-11-19T16:05:24;11.90;95.50
6654;DHT22;3363;50.942;7.034;2023-11-19T16:07:53;11.90;95.90
6654;DHT22;3363;50.942;7.034;2023-11-19T16:10:20;11.90;95.20
6654;DHT22;3363;50.942;7.034;2023-11-19T16:12:46;11.90;94.30
6654;DHT22;3363;50.942;7.034;2023-11-19T16:15:13;11.90;94.10
6654;DHT22;3363;50.942;7.034;2023-11-19T16:17:41;11.90;93.40
6654;DHT22;3363;50.942;7.034;2023-11-19T16:20:08;11.90;93.50
6654;DHT22;3363;50.942;7.034;2023-11-19T16:22:36;11.90;93.30